sensor_id;sensor_type;location;lat;lon;timestamp;P1;durP1;ratioP1;P2;durP2;ratioP2
16506;SDS011;8366;51.020;7.642;2023-12-29T00:02:08;4.30;;;1.33;;
16506;SDS011;8366;51.020;7.642;2023-12-29T00:04:37;4.73;;;1.10;;
16506;SDS011;8366;51.020;7.642;2023-12-29T00:07:03;2.67;;;1.07;;
16506;SDS011;8366;51.020;7.642;2023-12-29T00:09:30;1.70;;;1.00;;
16506;SDS011;8366;51.020;7.642;2023-12-29T00:12:03;2.13;;;1.03;;
16506;SDS011;8366;51.020;7.642;2023-12-29T00:14:30;2.53;;;0.97;;
16506;SDS011;8366;51.020;7.642;2023-12-29T00:16:57;3.00;;;1.00;;
16506;SDS011;8366;51.020;7.642;2023-12-29T00:19:24;1.53;;;0.80;;
16506;SDS011;8366;51.020;7.642;2023-12-29T00:21:52;2.67;;;0.90;;
16506;SDS011;8366;51.020;7.642;2023-12-29T00:24:19;3.30;;;1.00;;
16506;SDS011;8366;51.020;7.642;2023-12-29T00:26:46;2.83;;;0.90;;
16506;SDS011;8366;51.020;7.642;2023-12-29T00:29:13;1.80;;;0.90;;
16506;SDS011;8366;51.020;7.642;2023-12-29T00:31:40;2.17;;;1.10;;
16506;SDS011;8366;51.020;7.642;2023-12-29T00:34:06;1.40;;;0.90;;
16506;SDS011;8366;51.020;7.642;2023-12-29T00:36:33;3.30;;;1.13;;
16506;SDS011;8366;51.020;7.642;2023-12-29T00:39:01;2.53;;;0.90;;
16506;SDS011;8366;51.020;7.642;2023-12-29T00:41:28;1.80;;;1.10;;
16506;SDS011;8366;51.020;7.642;2023-12-29T00:43:55;5.43;;;0.83;;
16506;SDS011;8366;51.020;7.642;2023-12-29T00:46:21;1.67;;;1.00;;
16506;SDS011;8366;51.020;7.642;2023-12-29T00:48:48;2.93;;;1.00;;
16506;SDS011;8366;51.020;7.642;2023-12-29T00:51:14;1.30;;;0.90;;
16506;SDS011;8366;51.020;7.642;2023-12-29T00:53:41;2.00;;;1.10;;
16506;SDS011;8366;51.020;7.642;2023-12-29T00:56:11;4.03;;;1.10;;
16506;SDS011;8366;51.020;7.642;2023-12-29T00:58:38;2.10;;;1.20;;
16506;SDS011;8366;51.020;7.642;2023-12-29T01:01:06;2.40;;;0.87;;
16506;SDS011;8366;51.020;7.642;2023-12-29T01:03:36;5.10;;;1.10;;
16506;SDS011;8366;51.020;7.642;2023-12-29T01:06:03;2.93;;;1.13;;
16506;SDS011;8366;51.020;7.642;2023-12-29T01:08:30;2.50;;;1.10;;
16506;SDS011;8366;51.020;7.642;2023-12-29T01:10:56;2.60;;;1.07;;
16506;SDS011;8366;51.020;7.642;2023-12-29T01:13:24;2.20;;;1.20;;
16506;SDS011;8366;51.020;7.642;2023-12-29T01:15:50;2.57;;;1.20;;
16506;SDS011;8366;51.020;7.642;2023-12-29T01:18:17;2.27;;;0.97;;
16506;SDS011;8366;51.020;7.642;2023-12-29T01:20:43;2.60;;;1.20;;
16506;SDS011;8366;51.020;7.642;2023-12-29T01:23:10;1.80;;;1.30;;
16506;SDS011;8366;51.020;7.642;2023-12-29T01:25:36;2.10;;;1.20;;
16506;SDS011;8366;51.020;7.642;2023-12-29T01:28:03;2.77;;;1.20;;
16506;SDS011;8366;51.020;7.642;2023-12-29T01:30:31;3.17;;;1.10;;
16506;SDS011;8366;51.020;7.642;2023-12-29T01:32:58;2.97;;;1.33;;
16506;SDS011;8366;51.020;7.642;2023-12-29T01:35:24;4.00;;;1.50;;
16506;SDS011;8366;51.020;7.642;2023-12-29T01:37:51;4.60;;;1.40;;
16506;SDS011;8366;51.020;7.642;2023-12-29T01:40:17;2.63;;;1.10;;
16506;SDS011;8366;51.020;7.642;2023-12-29T01:42:44;2.70;;;1.37;;
16506;SDS011;8366;51.020;7.642;2023-12-29T01:45:20;3.07;;;1.30;;
16506;SDS011;8366;51.020;7.642;2023-12-29T01:47:49;3.00;;;1.17;;
16506;SDS011;8366;51.020;7.642;2023-12-29T01:50:17;2.27;;;1.20;;
16506;SDS011;8366;51.020;7.642;2023-12-29T01:52:44;2.97;;;1.37;;
16506;SDS011;8366;51.020;7.642;2023-12-29T01:55:12;2.93;;;1.10;;
16506;SDS011;8366;51.020;7.642;2023-12-29T01:57:41;2.63;;;1.30;;
16506;SDS011;8366;51.020;7.642;2023-12-29T02:00:09;3.83;;;1.47;;
16506;SDS011;8366;51.020;7.642;2023-12-29T02:02:36;1.83;;;1.23;;
16506;SDS011;8366;51.020;7.642;2023-12-29T02:05:04;2.30;;;1.20;;
16506;SDS011;8366;51.020;7.642;2023-12-29T02:07:31;3.60;;;1.30;;
16506;SDS011;8366;51.020;7.642;2023-12-29T02:09:58;2.73;;;1.20;;
16506;SDS011;8366;51.020;7.642;2023-12-29T02:12:25;3.23;;;1.60;;
16506;SDS011;8366;51.020;7.642;2023-12-29T02:14:52;2.33;;;1.30;;
16506;SDS011;8366;51.020;7.642;2023-12-29T02:17:20;4.97;;;1.50;;
16506;SDS011;8366;51.020;7.642;2023-12-29T02:19:48;4.10;;;1.30;;
16506;SDS011;8366;51.020;7.642;2023-12-29T02:22:17;3.70;;;1.60;;
16506;SDS011;8366;51.020;7.642;2023-12-29T02:24:45;3.47;;;1.40;;
16506;SDS011;8366;51.020;7.642;2023-12-29T02:27:16;4.33;;;1.50;;
16506;SDS011;8366;51.020;7.642;2023-12-29T02:29:53;4.90;;;1.53;;
16506;SDS011;8366;51.020;7.642;2023-12-29T02:32:26;5.10;;;1.47;;
16506;SDS011;8366;51.020;7.642;2023-12-29T02:34:54;5.57;;;1.53;;
16506;SDS011;8366;51.020;7.642;2023-12-29T02:37:21;5.33;;;1.70;;
16506;SDS011;8366;51.020;7.642;2023-12-29T02:39:51;5.13;;;1.80;;
16506;SDS011;8366;51.020;7.642;2023-12-29T02:42:18;3.13;;;1.47;;
16506;SDS011;8366;51.020;7.642;2023-12-29T02:44:44;5.10;;;1.40;;
16506;SDS011;8366;51.020;7.642;2023-12-29T02:47:11;4.80;;;1.50;;
16506;SDS011;8366;51.020;7.642;2023-12-29T02:49:37;2.37;;;1.40;;
16506;SDS011;8366;51.020;7.642;2023-12-29T02:52:04;4.97;;;1.47;;
16506;SDS011;8366;51.020;7.642;2023-12-29T02:54:31;3.10;;;1.30;;
16506;SDS011;8366;51.020;7.642;2023-12-29T02:56:59;3.43;;;2.17;;
16506;SDS011;8366;51.020;7.642;2023-12-29T02:59:25;4.53;;;1.90;;
16506;SDS011;8366;51.020;7.642;2023-12-29T03:01:52;5.47;;;1.80;;
16506;SDS011;8366;51.020;7.642;2023-12-29T03:04:18;5.53;;;1.60;;
16506;SDS011;8366;51.020;7.642;2023-12-29T03:06:45;3.57;;;1.47;;
16506;SDS011;8366;51.020;7.642;2023-12-29T03:09:12;4.80;;;1.63;;
16506;SDS011;8366;51.020;7.642;2023-12-29T03:11:38;3.50;;;1.50;;
16506;SDS011;8366;51.020;7.642;2023-12-29T03:14:06;5.13;;;1.50;;
16506;SDS011;8366;51.020;7.642;2023-12-29T03:16:33;5.23;;;1.47;;
16506;SDS011;8366;51.020;7.642;2023-12-29T03:18:59;4.07;;;1.40;;
16506;SDS011;8366;51.020;7.642;2023-12-29T03:21:26;3.83;;;1.50;;
16506;SDS011;8366;51.020;7.642;2023-12-29T03:23:52;3.87;;;1.40;;
16506;SDS011;8366;51.020;7.642;2023-12-29T03:26:19;3.20;;;1.50;;
16506;SDS011;8366;51.020;7.642;2023-12-29T03:28:45;2.20;;;1.30;;
16506;SDS011;8366;51.020;7.642;2023-12-29T03:31:13;5.40;;;1.43;;
16506;SDS011;8366;51.020;7.642;2023-12-29T03:33:40;4.33;;;1.40;;
16506;SDS011;8366;51.020;7.642;2023-12-29T03:36:06;4.37;;;1.60;;
16506;SDS011;8366;51.020;7.642;2023-12-29T03:38:34;4.77;;;1.53;;
16506;SDS011;8366;51.020;7.642;2023-12-29T03:41:01;4.53;;;1.20;;
16506;SDS011;8366;51.020;7.642;2023-12-29T03:43:27;3.80;;;1.17;;
16506;SDS011;8366;51.020;7.642;2023-12-29T03:45:54;8.83;;;1.40;;
16506;SDS011;8366;51.020;7.642;2023-12-29T03:48:22;6.03;;;1.50;;
16506;SDS011;8366;51.020;7.642;2023-12-29T03:50:48;3.57;;;1.20;;
16506;SDS011;8366;51.020;7.642;2023-12-29T03:53:15;2.97;;;1.20;;
16506;SDS011;8366;51.020;7.642;2023-12-29T03:55:42;3.67;;;1.33;;
16506;SDS011;8366;51.020;7.642;2023-12-29T03:58:08;3.47;;;1.30;;
16506;SDS011;8366;51.020;7.642;2023-12-29T04:00:35;3.87;;;1.50;;
16506;SDS011;8366;51.020;7.642;2023-12-29T04:03:02;4.37;;;1.30;;
16506;SDS011;8366;51.020;7.642;2023-12-29T04:05:30;5.00;;;1.70;;
16506;SDS011;8366;51.020;7.642;2023-12-29T04:07:56;4.57;;;1.40;;
16506;SDS011;8366;51.020;7.642;2023-12-29T04:10:22;2.63;;;1.30;;
16506;SDS011;8366;51.020;7.642;2023-12-29T04:12:48;4.07;;;1.37;;
16506;SDS011;8366;51.020;7.642;2023-12-29T04:15:15;3.37;;;1.40;;
16506;SDS011;8366;51.020;7.642;2023-12-29T04:17:41;4.60;;;1.20;;
16506;SDS011;8366;51.020;7.642;2023-12-29T04:20:08;5.70;;;1.90;;
16506;SDS011;8366;51.020;7.642;2023-12-29T04:22:36;3.00;;;1.40;;
16506;SDS011;8366;51.020;7.642;2023-12-29T04:25:03;5.37;;;1.30;;
16506;SDS011;8366;51.020;7.642;2023-12-29T04:27:30;3.90;;;1.10;;
16506;SDS011;8366;51.020;7.642;2023-12-29T04:29:56;7.20;;;1.70;;
16506;SDS011;8366;51.020;7.642;2023-12-29T04:32:23;5.77;;;1.30;;
16506;SDS011;8366;51.020;7.642;2023-12-29T04:34:50;4.13;;;1.27;;
16506;SDS011;8366;51.020;7.642;2023-12-29T04:37:16;7.13;;;1.40;;
16506;SDS011;8366;51.020;7.642;2023-12-29T04:39:44;4.97;;;1.20;;
16506;SDS011;8366;51.020;7.642;2023-12-29T04:42:11;3.43;;;1.53;;
16506;SDS011;8366;51.020;7.642;2023-12-29T04:44:37;4.17;;;1.33;;
16506;SDS011;8366;51.020;7.642;2023-12-29T04:47:04;4.70;;;1.30;;
16506;SDS011;8366;51.020;7.642;2023-12-29T04:49:30;5.27;;;1.50;;
16506;SDS011;8366;51.020;7.642;2023-12-29T04:51:57;4.77;;;1.40;;
16506;SDS011;8366;51.020;7.642;2023-12-29T04:54:24;3.77;;;1.30;;
16506;SDS011;8366;51.020;7.642;2023-12-29T04:56:51;3.27;;;1.20;;
16506;SDS011;8366;51.020;7.642;2023-12-29T04:59:18;5.40;;;1.40;;
16506;SDS011;8366;51.020;7.642;2023-12-29T05:01:45;6.10;;;1.37;;
16506;SDS011;8366;51.020;7.642;2023-12-29T05:04:11;2.87;;;1.20;;
16506;SDS011;8366;51.020;7.642;2023-12-29T05:06:39;2.43;;;1.13;;
16506;SDS011;8366;51.020;7.642;2023-12-29T05:09:06;6.07;;;1.30;;
16506;SDS011;8366;51.020;7.642;2023-12-29T05:11:33;3.97;;;1.40;;
16506;SDS011;8366;51.020;7.642;2023-12-29T05:14:01;4.57;;;1.23;;
16506;SDS011;8366;51.020;7.642;2023-12-29T05:16:28;4.50;;;1.00;;
16506;SDS011;8366;51.020;7.642;2023-12-29T05:18:54;4.03;;;1.57;;
16506;SDS011;8366;51.020;7.642;2023-12-29T05:21:20;3.50;;;1.10;;
16506;SDS011;8366;51.020;7.642;2023-12-29T05:23:49;5.70;;;1.27;;
16506;SDS011;8366;51.020;7.642;2023-12-29T05:26:15;4.00;;;1.43;;
16506;SDS011;8366;51.020;7.642;2023-12-29T05:28:42;4.90;;;1.17;;
16506;SDS011;8366;51.020;7.642;2023-12-29T05:31:10;4.03;;;1.20;;
16506;SDS011;8366;51.020;7.642;2023-12-29T05:33:36;7.80;;;1.20;;
16506;SDS011;8366;51.020;7.642;2023-12-29T05:36:05;5.57;;;1.33;;
16506;SDS011;8366;51.020;7.642;2023-12-29T05:38:32;4.90;;;1.20;;
16506;SDS011;8366;51.020;7.642;2023-12-29T05:40:59;3.87;;;1.57;;
16506;SDS011;8366;51.020;7.642;2023-12-29T05:43:26;2.33;;;1.10;;
16506;SDS011;8366;51.020;7.642;2023-12-29T05:45:52;2.40;;;1.27;;
16506;SDS011;8366;51.020;7.642;2023-12-29T05:48:20;3.83;;;1.13;;
16506;SDS011;8366;51.020;7.642;2023-12-29T05:50:47;3.67;;;1.10;;
16506;SDS011;8366;51.020;7.642;2023-12-29T05:53:14;2.37;;;1.07;;
16506;SDS011;8366;51.020;7.642;2023-12-29T05:55:41;4.17;;;1.13;;
16506;SDS011;8366;51.020;7.642;2023-12-29T05:58:09;2.67;;;0.90;;
16506;SDS011;8366;51.020;7.642;2023-12-29T06:00:36;5.73;;;1.40;;
16506;SDS011;8366;51.020;7.642;2023-12-29T06:03:03;3.03;;;1.20;;
16506;SDS011;8366;51.020;7.642;2023-12-29T06:05:32;4.30;;;1.23;;
16506;SDS011;8366;51.020;7.642;2023-12-29T06:07:58;5.60;;;1.20;;
16506;SDS011;8366;51.020;7.642;2023-12-29T06:10:25;4.27;;;1.23;;
16506;SDS011;8366;51.020;7.642;2023-12-29T06:12:51;3.03;;;1.40;;
16506;SDS011;8366;51.020;7.642;2023-12-29T06:15:18;4.03;;;1.30;;
16506;SDS011;8366;51.020;7.642;2023-12-29T06:17:45;3.20;;;1.20;;
16506;SDS011;8366;51.020;7.642;2023-12-29T06:20:12;4.47;;;1.27;;
16506;SDS011;8366;51.020;7.642;2023-12-29T06:22:40;4.77;;;1.20;;
16506;SDS011;8366;51.020;7.642;2023-12-29T06:25:08;7.40;;;1.33;;
16506;SDS011;8366;51.020;7.642;2023-12-29T06:27:35;3.33;;;1.17;;
16506;SDS011;8366;51.020;7.642;2023-12-29T06:30:03;4.77;;;1.20;;
16506;SDS011;8366;51.020;7.642;2023-12-29T06:32:31;2.00;;;1.17;;
16506;SDS011;8366;51.020;7.642;2023-12-29T06:34:57;6.30;;;1.10;;
16506;SDS011;8366;51.020;7.642;2023-12-29T06:37:24;3.20;;;1.17;;
16506;SDS011;8366;51.020;7.642;2023-12-29T06:39:52;3.30;;;1.20;;
16506;SDS011;8366;51.020;7.642;2023-12-29T06:42:18;2.90;;;1.20;;
16506;SDS011;8366;51.020;7.642;2023-12-29T06:44:45;2.07;;;0.80;;
16506;SDS011;8366;51.020;7.642;2023-12-29T06:47:12;2.67;;;0.93;;
16506;SDS011;8366;51.020;7.642;2023-12-29T06:49:38;4.57;;;1.57;;
16506;SDS011;8366;51.020;7.642;2023-12-29T06:52:05;3.07;;;0.93;;
16506;SDS011;8366;51.020;7.642;2023-12-29T06:54:33;3.00;;;1.10;;
16506;SDS011;8366;51.020;7.642;2023-12-29T06:57:02;5.67;;;1.10;;
16506;SDS011;8366;51.020;7.642;2023-12-29T06:59:29;2.50;;;1.00;;
16506;SDS011;8366;51.020;7.642;2023-12-29T07:01:56;3.10;;;1.20;;
16506;SDS011;8366;51.020;7.642;2023-12-29T07:04:25;4.80;;;1.33;;
16506;SDS011;8366;51.020;7.642;2023-12-29T07:06:52;2.23;;;0.90;;
16506;SDS011;8366;51.020;7.642;2023-12-29T07:09:19;4.50;;;1.27;;
16506;SDS011;8366;51.020;7.642;2023-12-29T07:11:47;4.33;;;0.90;;
16506;SDS011;8366;51.020;7.642;2023-12-29T07:14:15;3.03;;;1.07;;
16506;SDS011;8366;51.020;7.642;2023-12-29T07:16:42;3.50;;;1.20;;
16506;SDS011;8366;51.020;7.642;2023-12-29T07:19:09;2.97;;;0.90;;
16506;SDS011;8366;51.020;7.642;2023-12-29T07:21:36;2.30;;;0.90;;
16506;SDS011;8366;51.020;7.642;2023-12-29T07:24:02;4.30;;;1.33;;
16506;SDS011;8366;51.020;7.642;2023-12-29T07:26:29;2.77;;;1.23;;
16506;SDS011;8366;51.020;7.642;2023-12-29T07:28:58;6.57;;;1.93;;
16506;SDS011;8366;51.020;7.642;2023-12-29T07:31:26;2.30;;;1.50;;
16506;SDS011;8366;51.020;7.642;2023-12-29T07:33:53;5.40;;;2.20;;
16506;SDS011;8366;51.020;7.642;2023-12-29T07:36:19;3.10;;;1.10;;
16506;SDS011;8366;51.020;7.642;2023-12-29T07:38:46;4.07;;;1.10;;
16506;SDS011;8366;51.020;7.642;2023-12-29T07:41:12;4.37;;;1.20;;
16506;SDS011;8366;51.020;7.642;2023-12-29T07:43:39;4.33;;;1.80;;
16506;SDS011;8366;51.020;7.642;2023-12-29T07:46:06;4.37;;;1.60;;
16506;SDS011;8366;51.020;7.642;2023-12-29T07:48:34;4.60;;;1.20;;
16506;SDS011;8366;51.020;7.642;2023-12-29T07:51:03;5.87;;;2.27;;
16506;SDS011;8366;51.020;7.642;2023-12-29T07:53:31;4.63;;;2.00;;
16506;SDS011;8366;51.020;7.642;2023-12-29T07:55:57;3.30;;;1.80;;
16506;SDS011;8366;51.020;7.642;2023-12-29T07:58:24;2.40;;;1.10;;
16506;SDS011;8366;51.020;7.642;2023-12-29T08:00:50;3.53;;;1.10;;
16506;SDS011;8366;51.020;7.642;2023-12-29T08:03:17;1.97;;;1.30;;
16506;SDS011;8366;51.020;7.642;2023-12-29T08:05:45;3.47;;;1.10;;
16506;SDS011;8366;51.020;7.642;2023-12-29T08:08:12;3.07;;;1.40;;
16506;SDS011;8366;51.020;7.642;2023-12-29T08:10:39;4.57;;;1.30;;
16506;SDS011;8366;51.020;7.642;2023-12-29T08:13:08;2.50;;;1.23;;
16506;SDS011;8366;51.020;7.642;2023-12-29T08:15:35;4.83;;;1.03;;
16506;SDS011;8366;51.020;7.642;2023-12-29T08:18:02;3.53;;;1.13;;
16506;SDS011;8366;51.020;7.642;2023-12-29T08:20:29;2.33;;;1.20;;
16506;SDS011;8366;51.020;7.642;2023-12-29T08:22:57;2.43;;;1.20;;
16506;SDS011;8366;51.020;7.642;2023-12-29T08:25:23;4.03;;;1.37;;
16506;SDS011;8366;51.020;7.642;2023-12-29T08:27:50;4.33;;;1.20;;
16506;SDS011;8366;51.020;7.642;2023-12-29T08:30:16;3.30;;;1.10;;
16506;SDS011;8366;51.020;7.642;2023-12-29T08:32:43;2.50;;;1.20;;
16506;SDS011;8366;51.020;7.642;2023-12-29T08:35:09;3.40;;;1.33;;
16506;SDS011;8366;51.020;7.642;2023-12-29T08:37:36;3.80;;;1.10;;
16506;SDS011;8366;51.020;7.642;2023-12-29T08:40:05;4.30;;;1.20;;
16506;SDS011;8366;51.020;7.642;2023-12-29T08:42:32;3.40;;;0.97;;
16506;SDS011;8366;51.020;7.642;2023-12-29T08:44:59;5.43;;;1.30;;
16506;SDS011;8366;51.020;7.642;2023-12-29T08:47:26;2.33;;;1.17;;
16506;SDS011;8366;51.020;7.642;2023-12-29T08:49:52;2.40;;;1.10;;
16506;SDS011;8366;51.020;7.642;2023-12-29T08:52:19;2.23;;;1.03;;
16506;SDS011;8366;51.020;7.642;2023-12-29T08:54:46;2.97;;;1.40;;
16506;SDS011;8366;51.020;7.642;2023-12-29T08:57:14;3.07;;;1.07;;
16506;SDS011;8366;51.020;7.642;2023-12-29T08:59:40;4.77;;;1.37;;
16506;SDS011;8366;51.020;7.642;2023-12-29T09:02:07;2.70;;;1.13;;
16506;SDS011;8366;51.020;7.642;2023-12-29T09:04:33;2.33;;;1.30;;
16506;SDS011;8366;51.020;7.642;2023-12-29T09:07:00;2.67;;;1.27;;
16506;SDS011;8366;51.020;7.642;2023-12-29T09:09:27;1.43;;;0.80;;
16506;SDS011;8366;51.020;7.642;2023-12-29T09:11:53;1.73;;;1.00;;
16506;SDS011;8366;51.020;7.642;2023-12-29T09:14:21;3.37;;;1.20;;
16506;SDS011;8366;51.020;7.642;2023-12-29T09:16:48;3.70;;;1.20;;
16506;SDS011;8366;51.020;7.642;2023-12-29T09:19:15;3.30;;;1.27;;
16506;SDS011;8366;51.020;7.642;2023-12-29T09:21:42;3.60;;;1.20;;
16506;SDS011;8366;51.020;7.642;2023-12-29T09:24:08;4.50;;;1.57;;
16506;SDS011;8366;51.020;7.642;2023-12-29T09:26:35;4.67;;;1.33;;
16506;SDS011;8366;51.020;7.642;2023-12-29T09:29:01;2.67;;;1.50;;
16506;SDS011;8366;51.020;7.642;2023-12-29T09:31:29;2.77;;;1.13;;
16506;SDS011;8366;51.020;7.642;2023-12-29T09:33:56;3.07;;;1.13;;
16506;SDS011;8366;51.020;7.642;2023-12-29T09:36:23;1.57;;;1.10;;
16506;SDS011;8366;51.020;7.642;2023-12-29T09:38:49;3.50;;;1.53;;
16506;SDS011;8366;51.020;7.642;2023-12-29T09:41:16;3.20;;;1.33;;
16506;SDS011;8366;51.020;7.642;2023-12-29T09:43:44;3.10;;;1.30;;
16506;SDS011;8366;51.020;7.642;2023-12-29T09:46:11;3.40;;;1.17;;
16506;SDS011;8366;51.020;7.642;2023-12-29T09:48:40;3.63;;;1.10;;
16506;SDS011;8366;51.020;7.642;2023-12-29T09:51:08;4.97;;;1.20;;
16506;SDS011;8366;51.020;7.642;2023-12-29T09:53:36;2.50;;;1.10;;
16506;SDS011;8366;51.020;7.642;2023-12-29T09:56:07;5.67;;;1.30;;
16506;SDS011;8366;51.020;7.642;2023-12-29T09:58:34;1.97;;;1.00;;
16506;SDS011;8366;51.020;7.642;2023-12-29T10:01:02;4.30;;;1.10;;
16506;SDS011;8366;51.020;7.642;2023-12-29T10:03:30;3.83;;;1.27;;
16506;SDS011;8366;51.020;7.642;2023-12-29T10:05:59;3.23;;;1.10;;
16506;SDS011;8366;51.020;7.642;2023-12-29T10:08:27;4.63;;;1.10;;
16506;SDS011;8366;51.020;7.642;2023-12-29T10:10:54;2.37;;;1.20;;
16506;SDS011;8366;51.020;7.642;2023-12-29T10:13:21;2.50;;;0.90;;
16506;SDS011;8366;51.020;7.642;2023-12-29T10:15:49;2.27;;;0.93;;
16506;SDS011;8366;51.020;7.642;2023-12-29T10:18:21;3.37;;;0.97;;
16506;SDS011;8366;51.020;7.642;2023-12-29T10:20:50;3.67;;;1.40;;
16506;SDS011;8366;51.020;7.642;2023-12-29T10:23:26;3.97;;;1.10;;
16506;SDS011;8366;51.020;7.642;2023-12-29T10:25:57;2.67;;;1.17;;
16506;SDS011;8366;51.020;7.642;2023-12-29T10:28:24;3.50;;;1.33;;
16506;SDS011;8366;51.020;7.642;2023-12-29T10:30:51;3.63;;;1.23;;
16506;SDS011;8366;51.020;7.642;2023-12-29T10:33:21;3.00;;;1.17;;
16506;SDS011;8366;51.020;7.642;2023-12-29T10:35:56;4.40;;;1.30;;
16506;SDS011;8366;51.020;7.642;2023-12-29T10:38:25;3.03;;;1.17;;
16506;SDS011;8366;51.020;7.642;2023-12-29T10:40:51;2.57;;;0.97;;
16506;SDS011;8366;51.020;7.642;2023-12-29T10:43:21;2.40;;;0.93;;
16506;SDS011;8366;51.020;7.642;2023-12-29T10:45:48;4.40;;;1.20;;
16506;SDS011;8366;51.020;7.642;2023-12-29T10:48:20;2.03;;;0.90;;
16506;SDS011;8366;51.020;7.642;2023-12-29T10:50:47;3.00;;;1.20;;
16506;SDS011;8366;51.020;7.642;2023-12-29T10:53:14;2.50;;;0.80;;
16506;SDS011;8366;51.020;7.642;2023-12-29T10:55:43;2.13;;;0.87;;
16506;SDS011;8366;51.020;7.642;2023-12-29T10:58:10;2.93;;;1.10;;
16506;SDS011;8366;51.020;7.642;2023-12-29T11:00:37;3.27;;;1.50;;
16506;SDS011;8366;51.020;7.642;2023-12-29T11:03:04;2.63;;;1.10;;
16506;SDS011;8366;51.020;7.642;2023-12-29T11:05:32;1.97;;;0.97;;
16506;SDS011;8366;51.020;7.642;2023-12-29T11:07:58;1.30;;;0.77;;
16506;SDS011;8366;51.020;7.642;2023-12-29T11:10:25;2.80;;;0.90;;
16506;SDS011;8366;51.020;7.642;2023-12-29T11:12:53;1.23;;;0.70;;
16506;SDS011;8366;51.020;7.642;2023-12-29T11:15:20;1.67;;;0.70;;
16506;SDS011;8366;51.020;7.642;2023-12-29T11:17:47;1.90;;;1.00;;
16506;SDS011;8366;51.020;7.642;2023-12-29T11:20:16;2.87;;;0.90;;
16506;SDS011;8366;51.020;7.642;2023-12-29T11:22:45;2.07;;;0.97;;
16506;SDS011;8366;51.020;7.642;2023-12-29T11:25:12;1.57;;;0.93;;
16506;SDS011;8366;51.020;7.642;2023-12-29T11:27:39;2.37;;;0.80;;
16506;SDS011;8366;51.020;7.642;2023-12-29T11:30:08;3.33;;;0.80;;
16506;SDS011;8366;51.020;7.642;2023-12-29T11:32:37;1.43;;;0.70;;
16506;SDS011;8366;51.020;7.642;2023-12-29T11:35:11;1.60;;;0.80;;
16506;SDS011;8366;51.020;7.642;2023-12-29T11:40:27;1.23;;;1.03;;
16506;SDS011;8366;51.020;7.642;2023-12-29T11:42:57;1.10;;;0.80;;
16506;SDS011;8366;51.020;7.642;2023-12-29T11:45:29;1.13;;;0.80;;
16506;SDS011;8366;51.020;7.642;2023-12-29T11:47:59;2.23;;;0.70;;
16506;SDS011;8366;51.020;7.642;2023-12-29T11:50:28;1.17;;;0.70;;
16506;SDS011;8366;51.020;7.642;2023-12-29T11:52:56;0.63;;;0.63;;
16506;SDS011;8366;51.020;7.642;2023-12-29T11:55:24;4.07;;;0.90;;
16506;SDS011;8366;51.020;7.642;2023-12-29T11:57:54;4.23;;;2.17;;
16506;SDS011;8366;51.020;7.642;2023-12-29T12:00:45;0.80;;;0.80;;
16506;SDS011;8366;51.020;7.642;2023-12-29T12:03:13;2.17;;;0.80;;
16506;SDS011;8366;51.020;7.642;2023-12-29T12:05:45;1.10;;;0.83;;
16506;SDS011;8366;51.020;7.642;2023-12-29T12:08:26;1.83;;;0.77;;
16506;SDS011;8366;51.020;7.642;2023-12-29T12:10:53;1.57;;;0.60;;
16506;SDS011;8366;51.020;7.642;2023-12-29T12:19:19;2.27;;;0.70;;
16506;SDS011;8366;51.020;7.642;2023-12-29T12:21:49;1.63;;;0.80;;
16506;SDS011;8366;51.020;7.642;2023-12-29T12:24:18;0.97;;;0.70;;
16506;SDS011;8366;51.020;7.642;2023-12-29T12:26:44;1.67;;;0.70;;
16506;SDS011;8366;51.020;7.642;2023-12-29T12:29:12;1.67;;;0.60;;
16506;SDS011;8366;51.020;7.642;2023-12-29T12:31:52;1.13;;;0.70;;
16506;SDS011;8366;51.020;7.642;2023-12-29T12:34:19;2.60;;;0.80;;
16506;SDS011;8366;51.020;7.642;2023-12-29T12:36:49;1.37;;;1.00;;
16506;SDS011;8366;51.020;7.642;2023-12-29T12:39:16;2.30;;;0.80;;
16506;SDS011;8366;51.020;7.642;2023-12-29T12:41:43;2.53;;;0.60;;
16506;SDS011;8366;51.020;7.642;2023-12-29T12:44:11;1.37;;;0.73;;
16506;SDS011;8366;51.020;7.642;2023-12-29T12:46:39;1.10;;;0.80;;
16506;SDS011;8366;51.020;7.642;2023-12-29T12:49:08;0.97;;;0.60;;
16506;SDS011;8366;51.020;7.642;2023-12-29T12:51:35;0.70;;;0.60;;
16506;SDS011;8366;51.020;7.642;2023-12-29T12:54:01;1.03;;;0.60;;
16506;SDS011;8366;51.020;7.642;2023-12-29T12:56:29;1.03;;;0.60;;
16506;SDS011;8366;51.020;7.642;2023-12-29T12:58:56;1.37;;;0.53;;
16506;SDS011;8366;51.020;7.642;2023-12-29T13:01:23;1.13;;;0.43;;
16506;SDS011;8366;51.020;7.642;2023-12-29T13:03:51;0.73;;;0.60;;
16506;SDS011;8366;51.020;7.642;2023-12-29T13:06:20;0.83;;;0.53;;
16506;SDS011;8366;51.020;7.642;2023-12-29T13:08:48;1.43;;;0.60;;
16506;SDS011;8366;51.020;7.642;2023-12-29T13:11:18;1.67;;;0.70;;
16506;SDS011;8366;51.020;7.642;2023-12-29T13:13:47;1.60;;;1.00;;
16506;SDS011;8366;51.020;7.642;2023-12-29T13:16:13;1.47;;;0.80;;
16506;SDS011;8366;51.020;7.642;2023-12-29T13:18:40;0.90;;;0.60;;
16506;SDS011;8366;51.020;7.642;2023-12-29T13:21:06;2.03;;;0.80;;
16506;SDS011;8366;51.020;7.642;2023-12-29T13:23:34;0.93;;;0.80;;
16506;SDS011;8366;51.020;7.642;2023-12-29T13:26:02;1.63;;;0.90;;
16506;SDS011;8366;51.020;7.642;2023-12-29T13:28:30;1.17;;;0.80;;
16506;SDS011;8366;51.020;7.642;2023-12-29T13:30:58;1.13;;;0.73;;
16506;SDS011;8366;51.020;7.642;2023-12-29T13:33:26;0.60;;;0.60;;
16506;SDS011;8366;51.020;7.642;2023-12-29T13:36:01;0.87;;;0.60;;
16506;SDS011;8366;51.020;7.642;2023-12-29T13:38:35;1.10;;;0.90;;
16506;SDS011;8366;51.020;7.642;2023-12-29T13:41:04;1.27;;;1.00;;
16506;SDS011;8366;51.020;7.642;2023-12-29T13:43:34;3.10;;;0.80;;
16506;SDS011;8366;51.020;7.642;2023-12-29T13:46:03;0.93;;;0.70;;
16506;SDS011;8366;51.020;7.642;2023-12-29T13:48:30;1.60;;;0.80;;
16506;SDS011;8366;51.020;7.642;2023-12-29T13:50:58;0.67;;;0.50;;
16506;SDS011;8366;51.020;7.642;2023-12-29T13:53:25;0.97;;;0.70;;
16506;SDS011;8366;51.020;7.642;2023-12-29T13:55:53;0.83;;;0.70;;
16506;SDS011;8366;51.020;7.642;2023-12-29T13:58:20;0.80;;;0.67;;
16506;SDS011;8366;51.020;7.642;2023-12-29T14:00:46;0.87;;;0.73;;
16506;SDS011;8366;51.020;7.642;2023-12-29T14:03:22;1.40;;;0.80;;
16506;SDS011;8366;51.020;7.642;2023-12-29T14:05:51;0.90;;;0.70;;
16506;SDS011;8366;51.020;7.642;2023-12-29T14:08:23;0.63;;;0.63;;
16506;SDS011;8366;51.020;7.642;2023-12-29T14:10:53;0.70;;;0.60;;
16506;SDS011;8366;51.020;7.642;2023-12-29T14:13:19;1.00;;;0.70;;
16506;SDS011;8366;51.020;7.642;2023-12-29T14:15:46;1.07;;;0.80;;
16506;SDS011;8366;51.020;7.642;2023-12-29T14:18:22;0.93;;;0.87;;
16506;SDS011;8366;51.020;7.642;2023-12-29T14:23:42;1.93;;;0.80;;
16506;SDS011;8366;51.020;7.642;2023-12-29T14:26:22;2.40;;;0.97;;
16506;SDS011;8366;51.020;7.642;2023-12-29T14:31:45;1.53;;;1.00;;
16506;SDS011;8366;51.020;7.642;2023-12-29T14:34:13;2.47;;;1.10;;
16506;SDS011;8366;51.020;7.642;2023-12-29T14:36:40;0.80;;;0.77;;
16506;SDS011;8366;51.020;7.642;2023-12-29T14:39:07;1.63;;;0.80;;
16506;SDS011;8366;51.020;7.642;2023-12-29T14:41:37;1.60;;;0.83;;
16506;SDS011;8366;51.020;7.642;2023-12-29T14:44:03;1.00;;;0.80;;
16506;SDS011;8366;51.020;7.642;2023-12-29T14:46:30;1.63;;;0.60;;
16506;SDS011;8366;51.020;7.642;2023-12-29T14:48:58;2.00;;;1.17;;
16506;SDS011;8366;51.020;7.642;2023-12-29T14:51:24;1.00;;;0.90;;
16506;SDS011;8366;51.020;7.642;2023-12-29T14:53:51;3.90;;;2.10;;
16506;SDS011;8366;51.020;7.642;2023-12-29T14:56:18;2.23;;;1.47;;
16506;SDS011;8366;51.020;7.642;2023-12-29T14:58:46;1.23;;;1.00;;
16506;SDS011;8366;51.020;7.642;2023-12-29T15:01:12;1.90;;;0.80;;
16506;SDS011;8366;51.020;7.642;2023-12-29T15:03:39;1.40;;;0.80;;
16506;SDS011;8366;51.020;7.642;2023-12-29T15:06:08;2.50;;;1.00;;
16506;SDS011;8366;51.020;7.642;2023-12-29T15:08:35;1.63;;;0.80;;
16506;SDS011;8366;51.020;7.642;2023-12-29T15:11:02;1.03;;;0.80;;
16506;SDS011;8366;51.020;7.642;2023-12-29T15:13:29;1.00;;;0.83;;
16506;SDS011;8366;51.020;7.642;2023-12-29T15:16:01;1.33;;;0.70;;
16506;SDS011;8366;51.020;7.642;2023-12-29T15:18:29;1.20;;;0.90;;